IMORC EGPA-EGPA

Flight info

Callsign IMORC
Flight time 0h 39m
Altitude 1500
Route EGED
Aircraft BN2P/L-VGD/C

Departure

Time 2026-05-07 08:16
Airport Kirkwall Airport (EGPA)

Arrival

Time 2026-05-07 08:56
Airport Kirkwall Airport (EGPA)
Time Latitude Longitude Altitude Speed Heading
2026-05-07 08:07 58.95436 -2.90127 51 ft 0 kts 270°
2026-05-07 08:10 58.95440 -2.90158 50 ft 9 kts 287°
2026-05-07 08:10 58.95493 -2.90311 52 ft 16 kts 311°
2026-05-07 08:10 58.95556 -2.90485 49 ft 15 kts 282°
2026-05-07 08:10 58.95571 -2.90709 48 ft 18 kts 277°
2026-05-07 08:11 58.95553 -2.90941 49 ft 14 kts 245°
2026-05-07 08:11 58.95535 -2.91090 49 ft 7 kts 290°
2026-05-07 08:11 58.95556 -2.91143 50 ft 9 kts 326°
2026-05-07 08:11 58.95621 -2.91199 50 ft 13 kts 336°
2026-05-07 08:12 58.95725 -2.91282 49 ft 18 kts 338°
2026-05-07 08:12 58.95835 -2.91227 50 ft 19 kts 35°
2026-05-07 08:12 58.95953 -2.91061 38 ft 19 kts 29°
2026-05-07 08:12 58.95987 -2.91023 35 ft 3 kts 34°
2026-05-07 08:13 58.96004 -2.90995 34 ft 0 kts 42°
2026-05-07 08:14 58.96018 -2.90971 34 ft 8 kts 43°
2026-05-07 08:15 58.96031 -2.90899 33 ft 0 kts 132°
2026-05-07 08:15 58.95964 -2.90784 36 ft 41 kts 140°
2026-05-07 08:16 58.95686 -2.90373 253 ft 50 kts 142°
2026-05-07 08:16 58.95405 -2.89924 554 ft 57 kts 147°
2026-05-07 08:16 58.95083 -2.89445 887 ft 57 kts 155°
2026-05-07 08:16 58.94806 -2.88994 1038 ft 53 kts 153°
2026-05-07 08:17 58.94505 -2.88465 1181 ft 67 kts 131°
2026-05-07 08:17 58.94670 -2.87445 1389 ft 107 kts 53°
2026-05-07 08:17 58.95467 -2.86811 1411 ft 135 kts 24°
2026-05-07 08:17 58.96374 -2.86248 1487 ft 142 kts 25°
2026-05-07 08:18 58.97300 -2.85564 1487 ft 146 kts 28°
2026-05-07 08:18 58.98238 -2.84750 1482 ft 145 kts 31°
2026-05-07 08:18 58.99147 -2.83931 1483 ft 145 kts 32°
2026-05-07 08:18 59.00077 -2.83122 1465 ft 146 kts 29°
2026-05-07 08:19 59.00997 -2.82287 1414 ft 148 kts 32°
2026-05-07 08:19 59.01926 -2.81381 1320 ft 150 kts 33°
2026-05-07 08:19 59.02837 -2.80483 1320 ft 147 kts 34°
2026-05-07 08:19 59.03730 -2.79492 1280 ft 146 kts 37°
2026-05-07 08:20 59.04612 -2.78526 1223 ft 149 kts 32°
2026-05-07 08:20 59.05613 -2.77953 1149 ft 154 kts
2026-05-07 08:20 59.06636 -2.77706 1227 ft 143 kts 15°
2026-05-07 08:20 59.07599 -2.77308 1273 ft 140 kts 17°
2026-05-07 08:21 59.08534 -2.76860 1323 ft 136 kts 20°
2026-05-07 08:21 59.09436 -2.76346 1368 ft 133 kts 22°
2026-05-07 08:21 59.10306 -2.75788 1418 ft 130 kts 24°
2026-05-07 08:21 59.11148 -2.75200 1471 ft 128 kts 26°
2026-05-07 08:22 59.11976 -2.74579 1503 ft 127 kts 30°
2026-05-07 08:22 59.12812 -2.73969 1546 ft 129 kts 23°
2026-05-07 08:22 59.13685 -2.73595 1618 ft 128 kts 12°
2026-05-07 08:22 59.14584 -2.73307 1619 ft 133 kts 13°
2026-05-07 08:23 59.15510 -2.72984 1654 ft 137 kts
2026-05-07 08:23 59.16452 -2.73001 1650 ft 133 kts 352°
2026-05-07 08:23 59.17316 -2.73299 1556 ft 122 kts 346°
2026-05-07 08:23 59.18106 -2.73591 1422 ft 111 kts 345°
2026-05-07 08:24 59.18831 -2.73893 1260 ft 102 kts 343°
2026-05-07 08:24 59.19505 -2.74090 1104 ft 96 kts 10°
2026-05-07 08:24 59.20060 -2.73595 969 ft 80 kts 68°
2026-05-07 08:24 59.20164 -2.72766 839 ft 53 kts 136°
2026-05-07 08:25 59.19900 -2.72739 741 ft 55 kts 215°
2026-05-07 08:25 59.19867 -2.73693 552 ft 78 kts 249°
2026-05-07 08:25 59.19793 -2.74676 387 ft 67 kts 226°
2026-05-07 08:25 59.19589 -2.75461 285 ft 64 kts 212°
2026-05-07 08:26 59.19154 -2.76820 41 ft 49 kts 219°
2026-05-07 08:26 59.19045 -2.77204 17 ft 5 kts 252°
2026-05-07 08:26 59.19040 -2.77231 17 ft 6 kts 250°
2026-05-07 08:27 59.19026 -2.77304 21 ft 0 kts 261°
2026-05-07 08:27 59.19023 -2.77300 18 ft 3 kts 72°
2026-05-07 08:27 59.19051 -2.77183 17 ft 14 kts 66°
2026-05-07 08:27 59.19091 -2.77002 18 ft 13 kts 67°
2026-05-07 08:28 59.19107 -2.76917 17 ft 4 kts 78°
2026-05-07 08:28 59.19115 -2.76899 17 ft 0 kts 335°
2026-05-07 08:28 59.19114 -2.76920 16 ft 0 kts 245°
2026-05-07 08:29 59.19104 -2.76965 18 ft 25 kts 242°
2026-05-07 08:30 59.18924 -2.77498 206 ft 56 kts 233°
2026-05-07 08:30 59.18724 -2.78311 394 ft 74 kts 223°
2026-05-07 08:30 59.18755 -2.79367 824 ft 95 kts 283°
2026-05-07 08:30 59.19219 -2.80444 1138 ft 113 kts 323°
2026-05-07 08:31 59.20002 -2.80684 1392 ft 117 kts 28°
2026-05-07 08:31 59.20689 -2.79773 1495 ft 131 kts 49°
2026-05-07 08:31 59.21400 -2.78592 1561 ft 135 kts 52°
2026-05-07 08:31 59.22084 -2.77323 1621 ft 138 kts 56°
2026-05-07 08:32 59.22733 -2.75938 1625 ft 140 kts 60°
2026-05-07 08:32 59.23349 -2.74454 1633 ft 141 kts 64°
2026-05-07 08:32 59.23920 -2.72936 1712 ft 137 kts 66°
2026-05-07 08:32 59.24476 -2.71412 1720 ft 139 kts 66°
2026-05-07 08:33 59.25020 -2.69841 1720 ft 138 kts 71°
2026-05-07 08:33 59.25180 -2.68210 1758 ft 113 kts 115°
2026-05-07 08:33 59.24997 -2.66767 1735 ft 108 kts 118°
2026-05-07 08:33 59.24793 -2.65374 1706 ft 106 kts 122°
2026-05-07 08:34 59.24547 -2.64013 1654 ft 105 kts 124°
2026-05-07 08:34 59.24292 -2.62741 1516 ft 98 kts 126°
2026-05-07 08:34 59.24068 -2.61483 1319 ft 96 kts 128°
2026-05-07 08:34 59.23787 -2.60378 1235 ft 87 kts 130°
2026-05-07 08:35 59.23566 -2.59342 1214 ft 80 kts 128°
2026-05-07 08:35 59.23359 -2.58326 1125 ft 81 kts 122°
2026-05-07 08:35 59.23436 -2.57190 1069 ft 94 kts 82°
2026-05-07 08:35 59.23775 -2.56059 963 ft 97 kts 79°
2026-05-07 08:36 59.24149 -2.54953 927 ft 97 kts 77°
2026-05-07 08:36 59.24495 -2.53872 894 ft 90 kts 84°
2026-05-07 08:36 59.24765 -2.52805 838 ft 88 kts 89°
2026-05-07 08:36 59.25151 -2.51817 789 ft 96 kts 50°
2026-05-07 08:37 59.25829 -2.51585 726 ft 107 kts 340°
2026-05-07 08:37 59.26294 -2.52435 616 ft 77 kts 255°
2026-05-07 08:37 59.26158 -2.53177 496 ft 53 kts 216°
2026-05-07 08:37 59.25968 -2.53756 418 ft 52 kts 214°
2026-05-07 08:38 59.25935 -2.54521 370 ft 67 kts 254°
2026-05-07 08:38 59.25977 -2.55411 393 ft 61 kts 232°
2026-05-07 08:38 59.25940 -2.56279 389 ft 65 kts 231°
2026-05-07 08:38 59.25767 -2.56963 340 ft 49 kts 199°
2026-05-07 08:39 59.25478 -2.57213 194 ft 48 kts 182°
2026-05-07 08:39 59.25146 -2.57410 66 ft 50 kts 185°
2026-05-07 08:39 59.24942 -2.57552 46 ft 4 kts 200°
2026-05-07 08:39 59.24932 -2.57574 46 ft 8 kts 216°
2026-05-07 08:40 59.24915 -2.57583 47 ft 3 kts 44°
2026-05-07 08:40 59.25006 -2.57507 45 ft 19 kts 21°
2026-05-07 08:40 59.25112 -2.57427 46 ft 17 kts 21°
2026-05-07 08:40 59.25194 -2.57396 50 ft 9 kts 315°
2026-05-07 08:41 59.25220 -2.57474 57 ft 4 kts 329°
2026-05-07 08:41 59.25229 -2.57485 57 ft 2 kts 306°
2026-05-07 08:41 59.25223 -2.57491 57 ft 0 kts 124°
2026-05-07 08:42 59.25206 -2.57420 52 ft 9 kts 101°
2026-05-07 08:43 59.25197 -2.57369 53 ft 6 kts 178°
2026-05-07 08:43 59.25132 -2.57404 47 ft 40 kts 199°
2026-05-07 08:43 59.24805 -2.57692 287 ft 57 kts 200°
2026-05-07 08:43 59.24416 -2.58120 614 ft 67 kts 201°
2026-05-07 08:44 59.24010 -2.58651 923 ft 73 kts 207°
2026-05-07 08:44 59.23603 -2.59297 1240 ft 78 kts 210°
2026-05-07 08:44 59.23174 -2.60042 1416 ft 86 kts 212°
2026-05-07 08:44 59.22707 -2.60842 1537 ft 93 kts 212°
2026-05-07 08:45 59.22205 -2.61670 1609 ft 99 kts 211°
2026-05-07 08:45 59.21649 -2.62540 1639 ft 105 kts 211°
2026-05-07 08:45 59.21049 -2.63452 1578 ft 113 kts 210°
2026-05-07 08:45 59.20429 -2.64389 1546 ft 114 kts 210°
2026-05-07 08:46 59.19794 -2.65360 1545 ft 115 kts 211°
2026-05-07 08:46 59.19164 -2.66333 1547 ft 115 kts 211°
2026-05-07 08:46 59.18531 -2.67272 1537 ft 112 kts 201°
2026-05-07 08:46 59.17791 -2.67352 1535 ft 110 kts 172°
2026-05-07 08:47 59.17027 -2.67237 1537 ft 111 kts 182°
2026-05-07 08:47 59.16268 -2.67568 1534 ft 114 kts 199°
2026-05-07 08:47 59.15563 -2.68254 1538 ft 113 kts 201°
2026-05-07 08:47 59.14869 -2.68958 1537 ft 112 kts 202°
2026-05-07 08:48 59.14186 -2.69685 1530 ft 111 kts 204°
2026-05-07 08:48 59.13513 -2.70422 1526 ft 111 kts 204°
2026-05-07 08:48 59.12842 -2.71165 1529 ft 111 kts 204°
2026-05-07 08:48 59.12174 -2.71908 1531 ft 110 kts 204°
2026-05-07 08:49 59.11508 -2.72649 1531 ft 110 kts 204°
2026-05-07 08:49 59.11068 -2.73139 1536 ft 110 kts 203°
2026-05-07 08:49 59.10184 -2.74124 1537 ft 110 kts 203°
2026-05-07 08:49 59.09518 -2.74864 1531 ft 110 kts 204°
2026-05-07 08:50 59.08854 -2.75603 1532 ft 110 kts 204°
2026-05-07 08:50 59.08414 -2.76092 1529 ft 110 kts 204°
2026-05-07 08:50 59.07750 -2.76832 1531 ft 110 kts 204°
2026-05-07 08:50 59.07086 -2.77571 1533 ft 110 kts 204°
2026-05-07 08:51 59.06418 -2.78313 1535 ft 111 kts 204°
2026-05-07 08:51 59.05746 -2.79058 1542 ft 111 kts 204°
2026-05-07 08:51 59.05078 -2.79798 1544 ft 110 kts 204°
2026-05-07 08:51 59.04413 -2.80535 1534 ft 110 kts 205°
2026-05-07 08:52 59.03755 -2.81268 1521 ft 107 kts 204°
2026-05-07 08:52 59.03116 -2.81976 1520 ft 106 kts 204°
2026-05-07 08:52 59.02468 -2.82691 1484 ft 109 kts 205°
2026-05-07 08:52 59.01808 -2.83425 1412 ft 109 kts 204°
2026-05-07 08:53 59.01155 -2.84150 1327 ft 108 kts 203°
2026-05-07 08:53 59.00505 -2.84867 1251 ft 107 kts 203°
2026-05-07 08:53 58.99869 -2.85573 1174 ft 106 kts 204°
2026-05-07 08:53 58.99219 -2.86289 1075 ft 102 kts 204°
2026-05-07 08:54 58.98669 -2.86905 984 ft 84 kts 202°
2026-05-07 08:54 58.98205 -2.87420 985 ft 71 kts 200°
2026-05-07 08:54 58.97816 -2.87907 1008 ft 65 kts 210°
2026-05-07 08:54 58.97557 -2.88614 970 ft 72 kts 225°
2026-05-07 08:55 58.97525 -2.89670 910 ft 80 kts 257°
2026-05-07 08:55 58.97595 -2.90695 864 ft 75 kts 252°
2026-05-07 08:55 58.97593 -2.91623 797 ft 58 kts 226°
2026-05-07 08:55 58.97310 -2.91919 660 ft 51 kts 179°
2026-05-07 08:56 58.96935 -2.91905 561 ft 56 kts 165°
2026-05-07 08:56 58.96609 -2.91650 367 ft 47 kts 152°
2026-05-07 08:56 58.96366 -2.91355 200 ft 37 kts 148°
2026-05-07 08:56 58.96160 -2.91076 96 ft 37 kts 152°
2026-05-07 08:57 58.95988 -2.90822 34 ft 24 kts 140°
2026-05-07 08:57 58.95886 -2.90654 40 ft 16 kts 137°
2026-05-07 08:57 58.95811 -2.90538 44 ft 11 kts 140°
2026-05-07 08:57 58.95757 -2.90447 46 ft 10 kts 139°
2026-05-07 08:58 58.95716 -2.90395 47 ft 4 kts 184°
2026-05-07 08:58 58.95689 -2.90425 48 ft 0 kts 219°
2026-05-07 08:58 58.95663 -2.90466 48 ft 11 kts 220°
2026-05-07 08:58 58.95589 -2.90515 49 ft 11 kts 146°
2026-05-07 08:59 58.95544 -2.90423 50 ft 9 kts 132°
2026-05-07 08:59 58.95499 -2.90322 52 ft 11 kts 132°
2026-05-07 08:59 58.95441 -2.90193 51 ft 15 kts 130°
2026-05-07 08:59 58.95404 -2.90107 49 ft 1 kts 94°
2026-05-07 09:00 58.95405 -2.90104 51 ft 0 kts 55°